sensor_id;sensor_type;location;lat;lon;timestamp;temperature;humidity
3344;DHT22;1685;53.104;8.228;2022-10-16T00:02:10;12.70;99.90
3344;DHT22;1685;53.104;8.228;2022-10-16T00:04:37;12.70;99.90
3344;DHT22;1685;53.104;8.228;2022-10-16T00:07:04;12.60;99.90
3344;DHT22;1685;53.104;8.228;2022-10-16T00:09:32;12.60;99.90
3344;DHT22;1685;53.104;8.228;2022-10-16T00:11:58;12.40;99.90
3344;DHT22;1685;53.104;8.228;2022-10-16T00:14:25;12.50;99.90
3344;DHT22;1685;53.104;8.228;2022-10-16T00:16:52;12.40;99.90
3344;DHT22;1685;53.104;8.228;2022-10-16T00:19:18;12.50;99.90
3344;DHT22;1685;53.104;8.228;2022-10-16T00:21:45;12.50;99.90
3344;DHT22;1685;53.104;8.228;2022-10-16T00:24:12;12.50;99.90
3344;DHT22;1685;53.104;8.228;2022-10-16T00:26:40;12.50;99.90
3344;DHT22;1685;53.104;8.228;2022-10-16T00:29:07;12.50;99.90
3344;DHT22;1685;53.104;8.228;2022-10-16T00:36:28;12.40;99.90
3344;DHT22;1685;53.104;8.228;2022-10-16T00:38:57;12.20;99.90
3344;DHT22;1685;53.104;8.228;2022-10-16T00:41:26;12.40;99.90
3344;DHT22;1685;53.104;8.228;2022-10-16T00:43:55;12.50;99.90
3344;DHT22;1685;53.104;8.228;2022-10-16T00:46:24;12.40;99.90
3344;DHT22;1685;53.104;8.228;2022-10-16T00:48:55;12.40;99.90
3344;DHT22;1685;53.104;8.228;2022-10-16T00:51:28;12.30;99.90
3344;DHT22;1685;53.104;8.228;2022-10-16T00:53:56;12.20;99.90
3344;DHT22;1685;53.104;8.228;2022-10-16T00:56:23;12.30;99.90
3344;DHT22;1685;53.104;8.228;2022-10-16T00:58:50;12.30;99.90
3344;DHT22;1685;53.104;8.228;2022-10-16T01:01:18;12.30;99.90
3344;DHT22;1685;53.104;8.228;2022-10-16T01:03:45;12.20;99.90
3344;DHT22;1685;53.104;8.228;2022-10-16T01:06:28;12.20;99.90
3344;DHT22;1685;53.104;8.228;2022-10-16T01:09:09;12.30;99.90
3344;DHT22;1685;53.104;8.228;2022-10-16T01:11:44;12.00;99.90
3344;DHT22;1685;53.104;8.228;2022-10-16T01:14:21;12.00;99.90
3344;DHT22;1685;53.104;8.228;2022-10-16T01:16:53;12.10;99.90
3344;DHT22;1685;53.104;8.228;2022-10-16T01:19:31;12.20;99.90
3344;DHT22;1685;53.104;8.228;2022-10-16T01:22:03;12.10;99.90
3344;DHT22;1685;53.104;8.228;2022-10-16T01:24:35;12.10;99.90
3344;DHT22;1685;53.104;8.228;2022-10-16T01:27:11;12.10;99.90
3344;DHT22;1685;53.104;8.228;2022-10-16T01:29:44;12.00;99.90
3344;DHT22;1685;53.104;8.228;2022-10-16T01:32:17;12.00;99.90
3344;DHT22;1685;53.104;8.228;2022-10-16T01:34:49;12.10;99.90
3344;DHT22;1685;53.104;8.228;2022-10-16T01:37:25;12.10;99.90
3344;DHT22;1685;53.104;8.228;2022-10-16T01:39:57;12.10;99.90
3344;DHT22;1685;53.104;8.228;2022-10-16T01:42:30;12.10;99.90
3344;DHT22;1685;53.104;8.228;2022-10-16T01:44:59;12.10;99.90
3344;DHT22;1685;53.104;8.228;2022-10-16T01:47:27;12.10;99.90
3344;DHT22;1685;53.104;8.228;2022-10-16T01:49:56;12.10;99.90
3344;DHT22;1685;53.104;8.228;2022-10-16T01:52:26;12.10;99.90
3344;DHT22;1685;53.104;8.228;2022-10-16T01:54:56;12.10;99.90
3344;DHT22;1685;53.104;8.228;2022-10-16T01:57:24;12.50;99.90
3344;DHT22;1685;53.104;8.228;2022-10-16T01:59:56;12.20;99.90
3344;DHT22;1685;53.104;8.228;2022-10-16T02:02:27;12.20;99.90
3344;DHT22;1685;53.104;8.228;2022-10-16T02:04:58;12.10;99.90
3344;DHT22;1685;53.104;8.228;2022-10-16T02:07:27;12.20;99.90
3344;DHT22;1685;53.104;8.228;2022-10-16T02:09:54;12.20;99.90
3344;DHT22;1685;53.104;8.228;2022-10-16T02:12:25;12.20;99.90
3344;DHT22;1685;53.104;8.228;2022-10-16T02:14:54;12.50;99.90
3344;DHT22;1685;53.104;8.228;2022-10-16T02:17:21;12.40;99.90
3344;DHT22;1685;53.104;8.228;2022-10-16T02:19:49;12.20;99.90
3344;DHT22;1685;53.104;8.228;2022-10-16T02:22:23;12.30;99.90
3344;DHT22;1685;53.104;8.228;2022-10-16T02:24:56;12.40;99.90
3344;DHT22;1685;53.104;8.228;2022-10-16T02:27:27;12.40;99.90
3344;DHT22;1685;53.104;8.228;2022-10-16T02:30:02;12.50;99.90
3344;DHT22;1685;53.104;8.228;2022-10-16T02:32:34;12.30;99.90
3344;DHT22;1685;53.104;8.228;2022-10-16T02:35:01;12.60;99.90
3344;DHT22;1685;53.104;8.228;2022-10-16T02:37:28;12.40;99.90
3344;DHT22;1685;53.104;8.228;2022-10-16T02:39:57;12.40;99.90
3344;DHT22;1685;53.104;8.228;2022-10-16T02:42:28;12.50;99.90
3344;DHT22;1685;53.104;8.228;2022-10-16T02:47:24;12.40;99.90
3344;DHT22;1685;53.104;8.228;2022-10-16T02:49:51;12.40;99.90
3344;DHT22;1685;53.104;8.228;2022-10-16T02:52:17;12.40;99.90
3344;DHT22;1685;53.104;8.228;2022-10-16T02:54:44;12.40;99.90
3344;DHT22;1685;53.104;8.228;2022-10-16T02:57:11;12.00;99.90
3344;DHT22;1685;53.104;8.228;2022-10-16T02:59:38;12.50;99.90
3344;DHT22;1685;53.104;8.228;2022-10-16T03:02:05;12.40;99.90
3344;DHT22;1685;53.104;8.228;2022-10-16T03:04:33;12.40;99.90
3344;DHT22;1685;53.104;8.228;2022-10-16T03:06:59;12.40;99.90
3344;DHT22;1685;53.104;8.228;2022-10-16T03:09:26;12.30;99.90
3344;DHT22;1685;53.104;8.228;2022-10-16T03:11:53;12.30;99.90
3344;DHT22;1685;53.104;8.228;2022-10-16T03:14:20;12.50;99.90
3344;DHT22;1685;53.104;8.228;2022-10-16T03:16:46;12.50;99.90
3344;DHT22;1685;53.104;8.228;2022-10-16T03:19:13;12.30;99.90
3344;DHT22;1685;53.104;8.228;2022-10-16T03:21:41;12.30;99.90
3344;DHT22;1685;53.104;8.228;2022-10-16T03:24:08;12.30;99.90
3344;DHT22;1685;53.104;8.228;2022-10-16T03:29:02;12.30;99.90
3344;DHT22;1685;53.104;8.228;2022-10-16T03:31:29;12.30;99.90
3344;DHT22;1685;53.104;8.228;2022-10-16T03:33:56;12.30;99.90
3344;DHT22;1685;53.104;8.228;2022-10-16T03:36:22;12.40;99.90
3344;DHT22;1685;53.104;8.228;2022-10-16T03:38:50;12.40;99.90
3344;DHT22;1685;53.104;8.228;2022-10-16T03:41:17;12.30;99.90
3344;DHT22;1685;53.104;8.228;2022-10-16T03:43:44;12.30;99.90
3344;DHT22;1685;53.104;8.228;2022-10-16T03:46:11;12.40;99.90
3344;DHT22;1685;53.104;8.228;2022-10-16T03:48:38;12.30;99.90
3344;DHT22;1685;53.104;8.228;2022-10-16T03:51:05;12.40;99.90
3344;DHT22;1685;53.104;8.228;2022-10-16T03:53:32;12.40;99.90
3344;DHT22;1685;53.104;8.228;2022-10-16T03:56:00;12.40;99.90
3344;DHT22;1685;53.104;8.228;2022-10-16T03:58:27;12.70;99.90
3344;DHT22;1685;53.104;8.228;2022-10-16T04:00:53;12.40;99.90
3344;DHT22;1685;53.104;8.228;2022-10-16T04:03:20;12.40;99.90
3344;DHT22;1685;53.104;8.228;2022-10-16T04:05:47;12.40;99.90
3344;DHT22;1685;53.104;8.228;2022-10-16T04:08:13;12.50;99.90
3344;DHT22;1685;53.104;8.228;2022-10-16T04:10:42;12.60;99.90
3344;DHT22;1685;53.104;8.228;2022-10-16T04:13:10;12.40;99.90
3344;DHT22;1685;53.104;8.228;2022-10-16T04:15:37;12.50;99.90
3344;DHT22;1685;53.104;8.228;2022-10-16T04:18:03;12.60;99.90
3344;DHT22;1685;53.104;8.228;2022-10-16T04:20:30;12.50;99.90
3344;DHT22;1685;53.104;8.228;2022-10-16T04:22:57;12.50;99.90
3344;DHT22;1685;53.104;8.228;2022-10-16T04:25:24;12.50;99.90
3344;DHT22;1685;53.104;8.228;2022-10-16T04:27:52;12.00;99.90
3344;DHT22;1685;53.104;8.228;2022-10-16T04:30:20;12.40;99.90
3344;DHT22;1685;53.104;8.228;2022-10-16T04:32:48;12.60;99.90
3344;DHT22;1685;53.104;8.228;2022-10-16T04:35:15;12.60;99.90
3344;DHT22;1685;53.104;8.228;2022-10-16T04:37:41;12.60;99.90
3344;DHT22;1685;53.104;8.228;2022-10-16T04:40:09;12.60;99.90
3344;DHT22;1685;53.104;8.228;2022-10-16T04:45:03;12.60;99.90
3344;DHT22;1685;53.104;8.228;2022-10-16T04:47:31;12.60;99.90
3344;DHT22;1685;53.104;8.228;2022-10-16T04:49:58;12.60;99.90
3344;DHT22;1685;53.104;8.228;2022-10-16T04:52:28;12.50;99.90
3344;DHT22;1685;53.104;8.228;2022-10-16T04:54:54;12.80;99.90
3344;DHT22;1685;53.104;8.228;2022-10-16T04:57:25;12.60;99.90
3344;DHT22;1685;53.104;8.228;2022-10-16T04:59:52;12.50;99.90
3344;DHT22;1685;53.104;8.228;2022-10-16T05:02:19;12.60;99.90
3344;DHT22;1685;53.104;8.228;2022-10-16T05:04:47;12.50;99.90
3344;DHT22;1685;53.104;8.228;2022-10-16T05:09:41;12.60;99.90
3344;DHT22;1685;53.104;8.228;2022-10-16T05:14:34;12.60;99.90
3344;DHT22;1685;53.104;8.228;2022-10-16T05:17:01;12.70;99.90
3344;DHT22;1685;53.104;8.228;2022-10-16T05:19:28;12.80;99.90
3344;DHT22;1685;53.104;8.228;2022-10-16T05:21:56;12.60;99.90
3344;DHT22;1685;53.104;8.228;2022-10-16T05:24:23;12.70;99.90
3344;DHT22;1685;53.104;8.228;2022-10-16T05:26:50;12.80;99.90
3344;DHT22;1685;53.104;8.228;2022-10-16T05:29:17;12.70;99.90
3344;DHT22;1685;53.104;8.228;2022-10-16T05:31:43;12.70;99.90
3344;DHT22;1685;53.104;8.228;2022-10-16T05:34:10;12.60;99.90
3344;DHT22;1685;53.104;8.228;2022-10-16T05:36:37;12.70;99.90
3344;DHT22;1685;53.104;8.228;2022-10-16T05:39:05;12.70;99.90
3344;DHT22;1685;53.104;8.228;2022-10-16T05:41:31;12.80;99.90
3344;DHT22;1685;53.104;8.228;2022-10-16T05:43:58;12.70;99.90
3344;DHT22;1685;53.104;8.228;2022-10-16T05:46:25;12.70;99.90
3344;DHT22;1685;53.104;8.228;2022-10-16T05:48:52;12.90;99.90
3344;DHT22;1685;53.104;8.228;2022-10-16T05:51:19;12.70;99.90
3344;DHT22;1685;53.104;8.228;2022-10-16T05:56:14;12.60;99.90
3344;DHT22;1685;53.104;8.228;2022-10-16T05:58:41;12.70;99.90
3344;DHT22;1685;53.104;8.228;2022-10-16T06:01:11;12.60;99.90
3344;DHT22;1685;53.104;8.228;2022-10-16T06:03:39;12.50;99.90
3344;DHT22;1685;53.104;8.228;2022-10-16T06:06:10;12.60;99.90
3344;DHT22;1685;53.104;8.228;2022-10-16T06:08:37;12.70;99.90
3344;DHT22;1685;53.104;8.228;2022-10-16T06:11:06;12.70;99.90
3344;DHT22;1685;53.104;8.228;2022-10-16T06:13:34;12.60;99.90
3344;DHT22;1685;53.104;8.228;2022-10-16T06:16:02;12.60;99.90
3344;DHT22;1685;53.104;8.228;2022-10-16T06:18:29;12.50;99.90
3344;DHT22;1685;53.104;8.228;2022-10-16T06:20:57;12.60;99.90
3344;DHT22;1685;53.104;8.228;2022-10-16T06:23:24;12.50;99.90
3344;DHT22;1685;53.104;8.228;2022-10-16T06:25:51;12.60;99.90
3344;DHT22;1685;53.104;8.228;2022-10-16T06:28:18;12.50;99.90
3344;DHT22;1685;53.104;8.228;2022-10-16T06:30:46;12.60;99.90
3344;DHT22;1685;53.104;8.228;2022-10-16T06:33:13;12.60;99.90
3344;DHT22;1685;53.104;8.228;2022-10-16T06:35:39;12.60;99.90
3344;DHT22;1685;53.104;8.228;2022-10-16T06:38:06;12.60;99.90
3344;DHT22;1685;53.104;8.228;2022-10-16T06:40:33;12.70;99.90
3344;DHT22;1685;53.104;8.228;2022-10-16T06:43:00;12.70;99.90
3344;DHT22;1685;53.104;8.228;2022-10-16T06:45:26;12.50;99.90
3344;DHT22;1685;53.104;8.228;2022-10-16T06:47:54;12.90;99.90
3344;DHT22;1685;53.104;8.228;2022-10-16T06:50:21;12.50;99.90
3344;DHT22;1685;53.104;8.228;2022-10-16T06:52:48;12.60;99.90
3344;DHT22;1685;53.104;8.228;2022-10-16T06:55:14;12.70;99.90
3344;DHT22;1685;53.104;8.228;2022-10-16T06:57:42;12.60;99.90
3344;DHT22;1685;53.104;8.228;2022-10-16T07:00:09;12.60;99.90
3344;DHT22;1685;53.104;8.228;2022-10-16T07:02:36;12.80;99.90
3344;DHT22;1685;53.104;8.228;2022-10-16T07:05:04;12.70;99.90
3344;DHT22;1685;53.104;8.228;2022-10-16T07:07:31;12.70;99.90
3344;DHT22;1685;53.104;8.228;2022-10-16T07:09:58;12.80;99.90
3344;DHT22;1685;53.104;8.228;2022-10-16T07:12:25;12.70;99.90
3344;DHT22;1685;53.104;8.228;2022-10-16T07:14:51;12.70;99.90
3344;DHT22;1685;53.104;8.228;2022-10-16T07:19:47;12.80;99.90
3344;DHT22;1685;53.104;8.228;2022-10-16T07:22:15;12.80;99.90
3344;DHT22;1685;53.104;8.228;2022-10-16T07:27:09;13.10;99.90
3344;DHT22;1685;53.104;8.228;2022-10-16T07:29:36;13.10;99.90
3344;DHT22;1685;53.104;8.228;2022-10-16T07:32:03;13.20;99.90
3344;DHT22;1685;53.104;8.228;2022-10-16T07:34:30;13.30;99.90
3344;DHT22;1685;53.104;8.228;2022-10-16T07:36:56;13.20;99.90
3344;DHT22;1685;53.104;8.228;2022-10-16T07:39:24;13.30;99.90
3344;DHT22;1685;53.104;8.228;2022-10-16T07:41:51;13.40;99.90
3344;DHT22;1685;53.104;8.228;2022-10-16T07:44:18;13.40;99.90
3344;DHT22;1685;53.104;8.228;2022-10-16T07:46:44;13.60;99.90
3344;DHT22;1685;53.104;8.228;2022-10-16T07:49:11;13.60;99.90
3344;DHT22;1685;53.104;8.228;2022-10-16T07:51:38;13.90;99.90
3344;DHT22;1685;53.104;8.228;2022-10-16T07:56:33;13.90;99.90
3344;DHT22;1685;53.104;8.228;2022-10-16T08:01:27;14.10;99.90
3344;DHT22;1685;53.104;8.228;2022-10-16T08:03:54;14.40;99.90
3344;DHT22;1685;53.104;8.228;2022-10-16T08:06:21;14.50;99.90
3344;DHT22;1685;53.104;8.228;2022-10-16T08:11:15;14.60;99.90
3344;DHT22;1685;53.104;8.228;2022-10-16T08:13:43;14.70;99.90
3344;DHT22;1685;53.104;8.228;2022-10-16T08:18:38;14.80;99.90
3344;DHT22;1685;53.104;8.228;2022-10-16T08:23:33;14.90;99.90
3344;DHT22;1685;53.104;8.228;2022-10-16T08:26:03;14.90;99.90
3344;DHT22;1685;53.104;8.228;2022-10-16T08:31:06;15.10;99.90
3344;DHT22;1685;53.104;8.228;2022-10-16T08:41:00;15.80;99.90
3344;DHT22;1685;53.104;8.228;2022-10-16T08:43:47;15.90;99.90
3344;DHT22;1685;53.104;8.228;2022-10-16T08:46:31;15.90;99.90
3344;DHT22;1685;53.104;8.228;2022-10-16T08:49:02;16.10;99.90
3344;DHT22;1685;53.104;8.228;2022-10-16T08:51:31;16.20;99.90
3344;DHT22;1685;53.104;8.228;2022-10-16T08:54:01;16.00;99.90
3344;DHT22;1685;53.104;8.228;2022-10-16T08:58:57;15.80;99.90
3344;DHT22;1685;53.104;8.228;2022-10-16T09:01:37;15.70;99.90
3344;DHT22;1685;53.104;8.228;2022-10-16T09:07:18;15.60;99.90
3344;DHT22;1685;53.104;8.228;2022-10-16T09:09:58;15.50;99.90
3344;DHT22;1685;53.104;8.228;2022-10-16T09:12:32;15.40;99.90
3344;DHT22;1685;53.104;8.228;2022-10-16T09:15:07;15.30;99.90
3344;DHT22;1685;53.104;8.228;2022-10-16T09:17:50;15.50;99.90
3344;DHT22;1685;53.104;8.228;2022-10-16T09:20:32;15.60;99.90
3344;DHT22;1685;53.104;8.228;2022-10-16T09:23:15;15.70;99.90
3344;DHT22;1685;53.104;8.228;2022-10-16T09:25:45;16.20;99.90
3344;DHT22;1685;53.104;8.228;2022-10-16T09:33:12;16.30;99.90
3344;DHT22;1685;53.104;8.228;2022-10-16T09:35:40;16.40;99.90
3344;DHT22;1685;53.104;8.228;2022-10-16T09:38:08;16.50;99.90
3344;DHT22;1685;53.104;8.228;2022-10-16T09:40:37;16.60;99.90
3344;DHT22;1685;53.104;8.228;2022-10-16T09:43:19;16.70;99.90
3344;DHT22;1685;53.104;8.228;2022-10-16T09:45:57;16.70;99.90
3344;DHT22;1685;53.104;8.228;2022-10-16T09:48:28;16.80;99.90
3344;DHT22;1685;53.104;8.228;2022-10-16T09:50:58;16.90;99.90
3344;DHT22;1685;53.104;8.228;2022-10-16T09:53:37;17.10;99.90
3344;DHT22;1685;53.104;8.228;2022-10-16T09:56:05;17.00;99.90
3344;DHT22;1685;53.104;8.228;2022-10-16T10:03:39;17.20;99.90
3344;DHT22;1685;53.104;8.228;2022-10-16T10:06:17;17.30;99.90
3344;DHT22;1685;53.104;8.228;2022-10-16T10:08:59;17.00;99.90
3344;DHT22;1685;53.104;8.228;2022-10-16T10:11:37;17.10;99.90
3344;DHT22;1685;53.104;8.228;2022-10-16T10:14:05;17.10;99.90
3344;DHT22;1685;53.104;8.228;2022-10-16T10:19:01;16.80;99.90
3344;DHT22;1685;53.104;8.228;2022-10-16T10:23:57;16.90;99.90
3344;DHT22;1685;53.104;8.228;2022-10-16T10:26:27;17.20;99.90
3344;DHT22;1685;53.104;8.228;2022-10-16T10:29:02;17.50;99.90
3344;DHT22;1685;53.104;8.228;2022-10-16T10:31:38;17.30;99.90
3344;DHT22;1685;53.104;8.228;2022-10-16T10:34:32;17.30;99.90
3344;DHT22;1685;53.104;8.228;2022-10-16T10:37:06;17.30;99.90
3344;DHT22;1685;53.104;8.228;2022-10-16T10:39:42;17.30;99.90
3344;DHT22;1685;53.104;8.228;2022-10-16T10:42:17;17.30;99.90
3344;DHT22;1685;53.104;8.228;2022-10-16T10:45:00;17.40;99.90
3344;DHT22;1685;53.104;8.228;2022-10-16T10:47:39;17.50;99.90
3344;DHT22;1685;53.104;8.228;2022-10-16T10:50:14;17.40;99.90
3344;DHT22;1685;53.104;8.228;2022-10-16T10:52:52;17.40;99.90
3344;DHT22;1685;53.104;8.228;2022-10-16T10:55:25;17.40;99.90
3344;DHT22;1685;53.104;8.228;2022-10-16T11:00:53;17.40;99.90
3344;DHT22;1685;53.104;8.228;2022-10-16T11:03:36;17.50;99.90
3344;DHT22;1685;53.104;8.228;2022-10-16T11:06:12;17.60;99.90
3344;DHT22;1685;53.104;8.228;2022-10-16T11:08:47;17.70;99.90
3344;DHT22;1685;53.104;8.228;2022-10-16T11:11:19;17.60;99.90
3344;DHT22;1685;53.104;8.228;2022-10-16T11:13:54;17.60;99.90
3344;DHT22;1685;53.104;8.228;2022-10-16T11:16:24;17.70;99.90
3344;DHT22;1685;53.104;8.228;2022-10-16T11:18:58;17.70;99.90
3344;DHT22;1685;53.104;8.228;2022-10-16T11:21:30;17.70;99.90
3344;DHT22;1685;53.104;8.228;2022-10-16T11:24:01;17.70;99.90
3344;DHT22;1685;53.104;8.228;2022-10-16T11:26:37;17.80;99.90
3344;DHT22;1685;53.104;8.228;2022-10-16T11:29:13;17.80;99.90
3344;DHT22;1685;53.104;8.228;2022-10-16T11:31:45;17.70;99.90
3344;DHT22;1685;53.104;8.228;2022-10-16T11:34:17;17.60;99.90
3344;DHT22;1685;53.104;8.228;2022-10-16T11:36:50;17.60;99.90
3344;DHT22;1685;53.104;8.228;2022-10-16T11:39:20;17.70;99.90
3344;DHT22;1685;53.104;8.228;2022-10-16T11:41:50;18.00;99.90
3344;DHT22;1685;53.104;8.228;2022-10-16T11:44:33;17.70;99.90
3344;DHT22;1685;53.104;8.228;2022-10-16T11:47:08;17.60;99.90
3344;DHT22;1685;53.104;8.228;2022-10-16T11:49:39;17.40;99.90
3344;DHT22;1685;53.104;8.228;2022-10-16T11:52:13;17.60;99.90
3344;DHT22;1685;53.104;8.228;2022-10-16T11:54:47;17.70;99.90
3344;DHT22;1685;53.104;8.228;2022-10-16T11:57:21;18.00;99.90
3344;DHT22;1685;53.104;8.228;2022-10-16T11:59:53;18.10;99.90
3344;DHT22;1685;53.104;8.228;2022-10-16T12:02:35;18.10;99.90
3344;DHT22;1685;53.104;8.228;2022-10-16T12:05:18;18.10;99.90
3344;DHT22;1685;53.104;8.228;2022-10-16T12:07:53;17.80;99.90
3344;DHT22;1685;53.104;8.228;2022-10-16T12:10:24;17.60;99.90
3344;DHT22;1685;53.104;8.228;2022-10-16T12:15:23;17.60;99.90
3344;DHT22;1685;53.104;8.228;2022-10-16T12:20:24;17.50;99.90
3344;DHT22;1685;53.104;8.228;2022-10-16T12:22:54;17.50;99.90
3344;DHT22;1685;53.104;8.228;2022-10-16T12:25:24;17.60;99.90
3344;DHT22;1685;53.104;8.228;2022-10-16T12:27:55;17.60;99.90
3344;DHT22;1685;53.104;8.228;2022-10-16T12:30:24;17.70;99.90
3344;DHT22;1685;53.104;8.228;2022-10-16T12:32:56;17.80;99.90
3344;DHT22;1685;53.104;8.228;2022-10-16T12:35:26;17.70;99.90
3344;DHT22;1685;53.104;8.228;2022-10-16T12:38:05;17.80;99.90
3344;DHT22;1685;53.104;8.228;2022-10-16T12:40:35;17.80;99.90
3344;DHT22;1685;53.104;8.228;2022-10-16T12:43:12;17.90;99.90
3344;DHT22;1685;53.104;8.228;2022-10-16T12:48:20;17.90;99.90
3344;DHT22;1685;53.104;8.228;2022-10-16T12:53:21;17.80;99.90
3344;DHT22;1685;53.104;8.228;2022-10-16T12:55:55;18.00;99.90
3344;DHT22;1685;53.104;8.228;2022-10-16T12:58:49;18.00;99.90
3344;DHT22;1685;53.104;8.228;2022-10-16T13:01:29;17.90;99.90
3344;DHT22;1685;53.104;8.228;2022-10-16T13:04:10;17.80;99.90
3344;DHT22;1685;53.104;8.228;2022-10-16T13:06:44;17.80;99.90
3344;DHT22;1685;53.104;8.228;2022-10-16T13:09:30;17.50;99.90
3344;DHT22;1685;53.104;8.228;2022-10-16T13:12:16;17.60;99.90
3344;DHT22;1685;53.104;8.228;2022-10-16T13:15:07;17.60;99.90
3344;DHT22;1685;53.104;8.228;2022-10-16T13:17:43;17.50;99.90
3344;DHT22;1685;53.104;8.228;2022-10-16T13:20:17;17.50;99.90
3344;DHT22;1685;53.104;8.228;2022-10-16T13:22:54;17.60;99.90
3344;DHT22;1685;53.104;8.228;2022-10-16T13:25:31;17.80;99.90
3344;DHT22;1685;53.104;8.228;2022-10-16T13:28:02;17.70;99.90
3344;DHT22;1685;53.104;8.228;2022-10-16T13:30:31;17.70;99.90
3344;DHT22;1685;53.104;8.228;2022-10-16T13:33:01;17.70;99.90
3344;DHT22;1685;53.104;8.228;2022-10-16T13:35:30;17.60;99.90
3344;DHT22;1685;53.104;8.228;2022-10-16T13:38:12;17.60;99.90
3344;DHT22;1685;53.104;8.228;2022-10-16T13:40:50;17.60;99.90
3344;DHT22;1685;53.104;8.228;2022-10-16T13:43:17;17.40;99.90
3344;DHT22;1685;53.104;8.228;2022-10-16T13:45:53;17.60;99.90
3344;DHT22;1685;53.104;8.228;2022-10-16T13:50:58;17.60;99.90
3344;DHT22;1685;53.104;8.228;2022-10-16T13:55:53;17.50;99.90
3344;DHT22;1685;53.104;8.228;2022-10-16T14:00:55;17.60;99.90
3344;DHT22;1685;53.104;8.228;2022-10-16T14:03:22;17.50;99.90
3344;DHT22;1685;53.104;8.228;2022-10-16T14:05:51;17.50;99.90
3344;DHT22;1685;53.104;8.228;2022-10-16T14:10:48;17.50;99.90
3344;DHT22;1685;53.104;8.228;2022-10-16T14:13:19;17.40;99.90
3344;DHT22;1685;53.104;8.228;2022-10-16T14:15:48;17.40;99.90
3344;DHT22;1685;53.104;8.228;2022-10-16T14:18:19;17.40;99.90
3344;DHT22;1685;53.104;8.228;2022-10-16T14:23:21;17.40;99.90
3344;DHT22;1685;53.104;8.228;2022-10-16T14:28:18;17.20;99.90
3344;DHT22;1685;53.104;8.228;2022-10-16T14:30:54;17.00;99.90
3344;DHT22;1685;53.104;8.228;2022-10-16T14:33:23;17.30;99.90
3344;DHT22;1685;53.104;8.228;2022-10-16T14:36:02;17.10;99.90
3344;DHT22;1685;53.104;8.228;2022-10-16T14:38:30;17.20;99.90
3344;DHT22;1685;53.104;8.228;2022-10-16T14:40:58;17.20;99.90
3344;DHT22;1685;53.104;8.228;2022-10-16T14:43:31;17.10;99.90
3344;DHT22;1685;53.104;8.228;2022-10-16T14:58:15;16.70;99.90
3344;DHT22;1685;53.104;8.228;2022-10-16T15:00:44;16.80;99.90
3344;DHT22;1685;53.104;8.228;2022-10-16T15:10:37;16.70;99.90
3344;DHT22;1685;53.104;8.228;2022-10-16T15:15:34;16.60;99.90
3344;DHT22;1685;53.104;8.228;2022-10-16T15:18:03;16.50;99.90
3344;DHT22;1685;53.104;8.228;2022-10-16T15:20:31;16.40;99.90
3344;DHT22;1685;53.104;8.228;2022-10-16T15:23:00;16.50;99.90
3344;DHT22;1685;53.104;8.228;2022-10-16T15:25:32;16.20;99.90
3344;DHT22;1685;53.104;8.228;2022-10-16T15:35:22;16.10;99.90
3344;DHT22;1685;53.104;8.228;2022-10-16T15:50:06;16.00;99.90
3344;DHT22;1685;53.104;8.228;2022-10-16T15:52:34;15.90;99.90
3344;DHT22;1685;53.104;8.228;2022-10-16T16:09:46;15.50;99.90
3344;DHT22;1685;53.104;8.228;2022-10-16T16:26:57;15.10;99.90
3344;DHT22;1685;53.104;8.228;2022-10-16T16:34:23;14.90;99.90
3344;DHT22;1685;53.104;8.228;2022-10-16T16:44:13;14.60;99.90
3344;DHT22;1685;53.104;8.228;2022-10-16T16:46:40;14.60;99.90
3344;DHT22;1685;53.104;8.228;2022-10-16T16:49:09;14.50;99.90
3344;DHT22;1685;53.104;8.228;2022-10-16T16:54:04;14.20;99.90
3344;DHT22;1685;53.104;8.228;2022-10-16T16:58:59;14.20;99.90
3344;DHT22;1685;53.104;8.228;2022-10-16T17:01:27;14.10;99.90
3344;DHT22;1685;53.104;8.228;2022-10-16T17:03:56;14.00;99.90
3344;DHT22;1685;53.104;8.228;2022-10-16T17:06:24;14.00;99.90
3344;DHT22;1685;53.104;8.228;2022-10-16T17:08:51;13.80;99.90
3344;DHT22;1685;53.104;8.228;2022-10-16T17:11:20;13.70;99.90
3344;DHT22;1685;53.104;8.228;2022-10-16T17:13:48;13.80;99.90
3344;DHT22;1685;53.104;8.228;2022-10-16T17:16:16;13.80;99.90
3344;DHT22;1685;53.104;8.228;2022-10-16T17:18:44;13.70;99.90
3344;DHT22;1685;53.104;8.228;2022-10-16T17:21:10;13.60;99.90
3344;DHT22;1685;53.104;8.228;2022-10-16T17:23:38;13.50;99.90
3344;DHT22;1685;53.104;8.228;2022-10-16T17:26:05;13.40;99.90
3344;DHT22;1685;53.104;8.228;2022-10-16T17:28:33;13.40;99.90
3344;DHT22;1685;53.104;8.228;2022-10-16T17:31:11;13.30;99.90
3344;DHT22;1685;53.104;8.228;2022-10-16T17:33:39;13.20;99.90
3344;DHT22;1685;53.104;8.228;2022-10-16T17:36:07;13.10;99.90
3344;DHT22;1685;53.104;8.228;2022-10-16T17:38:35;13.10;99.90
3344;DHT22;1685;53.104;8.228;2022-10-16T17:41:10;12.90;99.90
3344;DHT22;1685;53.104;8.228;2022-10-16T17:43:37;13.00;99.90
3344;DHT22;1685;53.104;8.228;2022-10-16T17:46:04;12.80;99.90
3344;DHT22;1685;53.104;8.228;2022-10-16T17:48:35;12.90;99.90
3344;DHT22;1685;53.104;8.228;2022-10-16T17:51:03;12.80;99.90
3344;DHT22;1685;53.104;8.228;2022-10-16T17:53:31;12.80;99.90
3344;DHT22;1685;53.104;8.228;2022-10-16T17:56:02;13.30;99.90
3344;DHT22;1685;53.104;8.228;2022-10-16T17:58:29;12.70;99.90
3344;DHT22;1685;53.104;8.228;2022-10-16T18:00:56;12.70;99.90
3344;DHT22;1685;53.104;8.228;2022-10-16T18:03:22;12.80;99.90
3344;DHT22;1685;53.104;8.228;2022-10-16T18:05:51;12.60;99.90
3344;DHT22;1685;53.104;8.228;2022-10-16T18:08:18;12.60;99.90
3344;DHT22;1685;53.104;8.228;2022-10-16T18:10:46;12.90;99.90
3344;DHT22;1685;53.104;8.228;2022-10-16T18:15:41;12.40;99.90
3344;DHT22;1685;53.104;8.228;2022-10-16T18:18:08;12.40;99.90
3344;DHT22;1685;53.104;8.228;2022-10-16T18:20:35;12.30;99.90
3344;DHT22;1685;53.104;8.228;2022-10-16T18:25:28;12.20;99.90
3344;DHT22;1685;53.104;8.228;2022-10-16T18:27:56;12.30;99.90
3344;DHT22;1685;53.104;8.228;2022-10-16T18:30:23;12.10;99.90
3344;DHT22;1685;53.104;8.228;2022-10-16T18:32:50;12.10;99.90
3344;DHT22;1685;53.104;8.228;2022-10-16T18:35:17;12.10;99.90
3344;DHT22;1685;53.104;8.228;2022-10-16T18:37:43;12.20;99.90
3344;DHT22;1685;53.104;8.228;2022-10-16T18:40:10;12.20;99.90
3344;DHT22;1685;53.104;8.228;2022-10-16T18:42:37;12.30;99.90
3344;DHT22;1685;53.104;8.228;2022-10-16T18:45:06;12.00;99.90
3344;DHT22;1685;53.104;8.228;2022-10-16T18:50:00;11.90;99.90
3344;DHT22;1685;53.104;8.228;2022-10-16T18:52:27;12.10;99.90
3344;DHT22;1685;53.104;8.228;2022-10-16T18:54:55;12.00;99.90
3344;DHT22;1685;53.104;8.228;2022-10-16T18:57:22;12.00;99.90
3344;DHT22;1685;53.104;8.228;2022-10-16T18:59:49;11.90;99.90
3344;DHT22;1685;53.104;8.228;2022-10-16T19:02:17;11.90;99.90
3344;DHT22;1685;53.104;8.228;2022-10-16T19:04:43;11.90;99.90
3344;DHT22;1685;53.104;8.228;2022-10-16T19:07:10;11.90;99.90
3344;DHT22;1685;53.104;8.228;2022-10-16T19:09:40;11.90;99.90
3344;DHT22;1685;53.104;8.228;2022-10-16T19:12:07;11.90;99.90
3344;DHT22;1685;53.104;8.228;2022-10-16T19:17:02;11.70;99.90
3344;DHT22;1685;53.104;8.228;2022-10-16T19:19:31;11.70;99.90
3344;DHT22;1685;53.104;8.228;2022-10-16T19:21:57;11.80;99.90
3344;DHT22;1685;53.104;8.228;2022-10-16T19:24:36;11.80;99.90
3344;DHT22;1685;53.104;8.228;2022-10-16T19:27:03;11.80;99.90
3344;DHT22;1685;53.104;8.228;2022-10-16T19:29:30;11.60;99.90
3344;DHT22;1685;53.104;8.228;2022-10-16T19:31:57;11.30;99.90
3344;DHT22;1685;53.104;8.228;2022-10-16T19:34:26;11.70;99.90